ELG weather

El Golea Airport
Ghardaïa Province, Algeria

Public forecast

Using degrees Celsius for public forecast. Weather courtesy of forecast.io.

METAR (pilot weather report)

Retrieved 2019/05/24 06:00 UTC (21 minutes ago):

DAUE 240600Z 00000KT CAVOK 22/05 Q1013

TAF (pilot weather forecast)

Forecast is more than 12 hours old.

Retrieved 2016/08/07 00:00 UTC (3 years ago):

TAF DAUE 062300Z 0700/0809 08010KT CAVOK